Windsor Mills, Ohio
Current Conditions -  °F | °C
As of 3:53 AM on Sunday 23 Nov 2014 (Local Time) from KHZY Reporting Station
Overcast Overcast  
Wind Chill: 41°   Ceiling: 4100
Heat Index: 45°   Visibility: 10mi
Dew Point: 33°   Wind: 8mph
Humidity: 63%   Direction: 190°S
Pressure: 30.03"   Gusts: NA
Location:  41.5537°N, 80.9667°W
Report Text: KHZY 230853Z AUTO 19007KT 10SM OVC041 07/01 A3003 RMK AO2 SLP176 T00720006 58002
Loading
Personal Weather Stations






























Interactive Weather Map New forecast layout! Learn more

10-Day Weather Forecast

Advertisements
Track Severe Weather on mobile